Grandeur Of The Seas — C6SE3 — position and weather

sailwx.info

Track history (hours):
 
Tides and Currents Weather Stations Pressure Air Temp Water Temp Dewpoint Dewpoint Depression Visibility Wind Speed Wind Dir Waves Ship Positions

Grandeur Of The Seas

Operator: Royal Caribbean Cruises Ltd

Last reported at 2015-Jul-05 06:00 UTC. Time now 2015-Jul-07 17:33 UTC.
Position N 33°36' W 067°24'.

Type: Passenger vessel. MMSI: 311315000.

Waves 32.5 meters (107 feet), 2 second period

Water temperature 28.0 ° C

Date/timePositionNaut miles runAvg speedWind from/ knotsBaromVisibWave heightAir tempDewpointWater temp
2015-Jul-05 06:00N 33°36' W 067°24'39618.9 32.5 28.0
2015-Jul-04 09:00N 36°24' W 074°42'8117.7 230 / 251010.910.8 2.025.023.627.0
2015-Jul-04 04:26N 37°07' W 076°07'3016.3
2015-Jul-04 02:34N 37°37' W 076°06'1818.1
2015-Jul-04 01:32N 37°55' W 076°11'5618.8
2015-Jul-03 22:33N 38°50' W 076°24'1616.3
2015-Jul-03 21:33N 39°06' W 076°24'1110.9
2015-Jul-03 20:33N 39°14' W 076°33'3 2.6
2015-Jul-03 19:33N 39°16' W 076°36'0 0.0
2015-Jul-03 18:33N 39°16' W 076°36'0 0.0
2015-Jul-03 17:33N 39°16' W 076°36'0 0.0
2015-Jul-03 16:33N 39°16' W 076°36'0 0.0
2015-Jul-03 15:33N 39°16' W 076°36'0 0.0
2015-Jul-03 14:33N 39°16' W 076°36'0 0.0
2015-Jul-03 13:33N 39°16' W 076°36'0 0.0
2015-Jul-03 12:34N 39°16' W 076°36'0 0.0
2015-Jul-03 11:33N 39°16' W 076°36'0 0.2
2015-Jul-03 10:33N 39°16' W 076°36'8 8.1
2015-Jul-03 09:33N 39°11' W 076°27'1413.8
2015-Jul-03 08:33N 38°58' W 076°23'1614.7
2015-Jul-03 07:29N 38°42' W 076°26'1514.3
2015-Jul-03 06:26N 38°27' W 076°22'1415.7
2015-Jul-03 05:33N 38°14' W 076°16'30913.1
2015-Jul-02 06:00N 33°06' W 076°48'7515.1 230 / 231017.010.8 1.027.524.830.0
2015-Jul-02 01:00N 32°06' W 077°42'22616.2 240 / 221016.027.0 1.028.028.028.0
2015-Jul-01 11:00N 28°30' W 079°00'3510.3 210 / 151020.510.8 1.025.522.030.0
2015-Jul-01 07:34N 27°56' W 079°09'1424.7
2015-Jul-01 07:00N 27°42' W 079°06'1111.5 140 / 91020.310.8 0.526.520.830.0
2015-Jul-01 06:04N 27°34' W 079°14'814.9
2015-Jul-01 05:33N 27°26' W 079°15'2013.0
2015-Jul-01 04:00N 27°06' W 079°12'1419.8 220 / 141021.027.0 28.028.032.0
2015-Jul-01 03:18N 26°52' W 079°14'8 0.2
2015-Jun-29 09:11N 26°46' W 079°11'253 8.4
2015-Jun-28 03:00N 30°48' W 077°48'48916.6 200 / 241016.010.8 3.028.028.031.0
2015-Jun-26 21:32N 38°52' W 076°24'2114.2
2015-Jun-26 20:04N 39°12' W 076°31'5 9.5
2015-Jun-26 19:33N 39°15' W 076°36'1 0.6
2015-Jun-26 18:33N 39°16' W 076°36'0 0.0
2015-Jun-26 17:27N 39°16' W 076°36'0 0.0
2015-Jun-26 16:21N 39°16' W 076°36'0 0.0
2015-Jun-26 15:33N 39°16' W 076°36'0 0.0
2015-Jun-26 14:33N 39°16' W 076°36'0 0.0
2015-Jun-26 13:33N 39°16' W 076°36'0 0.0
2015-Jun-26 12:33N 39°16' W 076°36'0 0.0
2015-Jun-26 11:33N 39°16' W 076°36'0 0.1
2015-Jun-26 10:32N 39°16' W 076°36'2510.2
2015-Jun-26 08:08N 38°53' W 076°24'  
Track history (hours):
 
Tides and Currents Weather Stations Pressure Air Temp Water Temp Dewpoint Dewpoint Depression Visibility Wind Speed Wind Dir Waves Ship Positions

Grandeur Of The Seas

Operator: Royal Caribbean Cruises Ltd

Last reported at 2015-Jul-05 06:00 UTC. Time now 2015-Jul-07 17:33 UTC.
Position N 33°36' W 067°24'.

Type: Passenger vessel. MMSI: 311315000.

Waves 32.5 meters (107 feet), 2 second period

Water temperature 28.0 ° C

Date/timePositionNaut miles runAvg speedWind from/ knotsBaromVisibWave heightAir tempDewpointWater temp
2015-Jul-05 06:00N 33°36' W 067°24'39618.9 32.5 28.0
2015-Jul-04 09:00N 36°24' W 074°42'8117.7 230 / 251010.910.8 2.025.023.627.0
2015-Jul-04 04:26N 37°07' W 076°07'3016.3
2015-Jul-04 02:34N 37°37' W 076°06'1818.1
2015-Jul-04 01:32N 37°55' W 076°11'5618.8
2015-Jul-03 22:33N 38°50' W 076°24'1616.3
2015-Jul-03 21:33N 39°06' W 076°24'1110.9
2015-Jul-03 20:33N 39°14' W 076°33'3 2.6
2015-Jul-03 19:33N 39°16' W 076°36'0 0.0
2015-Jul-03 18:33N 39°16' W 076°36'0 0.0
2015-Jul-03 17:33N 39°16' W 076°36'0 0.0
2015-Jul-03 16:33N 39°16' W 076°36'0 0.0
2015-Jul-03 15:33N 39°16' W 076°36'0 0.0
2015-Jul-03 14:33N 39°16' W 076°36'0 0.0
2015-Jul-03 13:33N 39°16' W 076°36'0 0.0
2015-Jul-03 12:34N 39°16' W 076°36'0 0.0
2015-Jul-03 11:33N 39°16' W 076°36'0 0.2
2015-Jul-03 10:33N 39°16' W 076°36'8 8.1
2015-Jul-03 09:33N 39°11' W 076°27'1413.8
2015-Jul-03 08:33N 38°58' W 076°23'1614.7
2015-Jul-03 07:29N 38°42' W 076°26'1514.3
2015-Jul-03 06:26N 38°27' W 076°22'1415.7
2015-Jul-03 05:33N 38°14' W 076°16'30913.1
2015-Jul-02 06:00N 33°06' W 076°48'7515.1 230 / 231017.010.8 1.027.524.830.0
2015-Jul-02 01:00N 32°06' W 077°42'22616.2 240 / 221016.027.0 1.028.028.028.0
2015-Jul-01 11:00N 28°30' W 079°00'3510.3 210 / 151020.510.8 1.025.522.030.0
2015-Jul-01 07:34N 27°56' W 079°09'1424.7
2015-Jul-01 07:00N 27°42' W 079°06'1111.5 140 / 91020.310.8 0.526.520.830.0
2015-Jul-01 06:04N 27°34' W 079°14'814.9
2015-Jul-01 05:33N 27°26' W 079°15'2013.0
2015-Jul-01 04:00N 27°06' W 079°12'1419.8 220 / 141021.027.0 28.028.032.0
2015-Jul-01 03:18N 26°52' W 079°14'8 0.2
2015-Jun-29 09:11N 26°46' W 079°11'253 8.4
2015-Jun-28 03:00N 30°48' W 077°48'48916.6 200 / 241016.010.8 3.028.028.031.0
2015-Jun-26 21:32N 38°52' W 076°24'2114.2
2015-Jun-26 20:04N 39°12' W 076°31'5 9.5
2015-Jun-26 19:33N 39°15' W 076°36'1 0.6
2015-Jun-26 18:33N 39°16' W 076°36'0 0.0
2015-Jun-26 17:27N 39°16' W 076°36'0 0.0
2015-Jun-26 16:21N 39°16' W 076°36'0 0.0
2015-Jun-26 15:33N 39°16' W 076°36'0 0.0
2015-Jun-26 14:33N 39°16' W 076°36'0 0.0
2015-Jun-26 13:33N 39°16' W 076°36'0 0.0
2015-Jun-26 12:33N 39°16' W 076°36'0 0.0
2015-Jun-26 11:33N 39°16' W 076°36'0 0.1
2015-Jun-26 10:32N 39°16' W 076°36'2510.2
2015-Jun-26 08:08N 38°53' W 076°24'  

Dump ship's entire track history